Floral, Canada
Current Conditions -  °F | °C
As of 11:00 AM on Saturday 25 Oct 2014 (Local Time) from CYXE Reporting Station
Broken Clouds Broken Clouds  
Wind Chill:   Ceiling: 24000
Heat Index:   Visibility: 15mi
Dew Point: -2°   Wind: 6mph
Humidity: 61%   Direction: 270°W
Pressure: 30.06"   Gusts: NA
Location:  52.07°N, 106.47°W
Report Text: CYXE 251700Z 27005KT 15SM FEW160 BKN240 05/M02 A3006 RMK AC2CI5 SLP202
Loading
Personal Weather Stations






























Interactive Weather Map
Tropical Storm Tracking
New forecast layout! Learn more

10-Day Weather Forecast

Advertisements
Track Severe Weather on mobile